• Join FlightAware (Why Join?)
  • Login
  • US Flag 
01:27AM EDT


 

Airport Tracker/Info


-or-


 

Live Flight TrackerFlight Track Log ✈ EJA941 ✈ 10-Aug-2013 ✈ KBFI - KIAD

Flight Track Log - Related Links

Times and Time Zones

All times are in EDT time to prevent confusion due to time zone crossing. See the EJA941 flight status page for this flight to view local times or setup timezone preferences in your user account.

Time Position Orientation Groundspeed Altitude Reporting Facility
EDT Latitude Longitude Course Direction KTS MPH feet Rate Location/Type
02:16PM 47.5036 -122.2825 147° Southeast 186 214 1,300  Level Seattle Center
02:17PM 47.4497 -122.2311 147° Southeast 214 246 4,600 2,880 Climbing Seattle Center
02:18PM 47.4406 -122.1200 97° East 273 314 7,600 2,520 Climbing Seattle Center
02:19PM 47.4411 -122.0067 90° East 277 319 9,800 1,680 Climbing Seattle Center
02:21PM 47.4361 -121.8792 93° East 310 357 11,100 1,080 Climbing Seattle Center
02:22PM 47.4294 -121.7347 94° East 352 405 12,100 1,080 Climbing Seattle Center
02:23PM 47.4264 -121.5689 91° East 377 434 13,400 1,500 Climbing Seattle Center
02:24PM 47.4161 -121.4142 96° East 379 436 15,200 1,800 Climbing Seattle Center
02:25PM 47.4056 -121.2628 96° East 372 428 17,100 1,740 Climbing Seattle Center
02:26PM 47.3950 -121.1150 96° East 369 425 18,800 1,680 Climbing Seattle Center
02:27PM 47.3847 -120.9653 96° East 371 427 20,600 1,680 Climbing Seattle Center
02:28PM 47.3739 -120.8181 96° East 373 429 22,300 1,560 Climbing Seattle Center
02:29PM 47.3614 -120.6611 97° East 383 441 23,800 1,620 Climbing Seattle Center
02:30PM 47.3486 -120.5011 97° East 392 451 25,600 1,620 Climbing Seattle Center
02:31PM 47.3372 -120.3381 96° East 399 459 27,100 1,560 Climbing Seattle Center
02:32PM 47.3231 -120.1392 96° East 405 466 28,800 1,500 Climbing Seattle Center
02:33PM 47.3083 -119.9681 97° East 418 481 30,200 1,320 Climbing Seattle Center
02:34PM 47.2947 -119.7939 97° East 428 493 31,600 1,320 Climbing Seattle Center
02:35PM 47.2803 -119.6167 97° East 436 502 32,900 1,080 Climbing Seattle Center
02:36PM 47.2647 -119.4353 97° East 448 516 33,900 960 Climbing Seattle Center
02:37PM 47.2483 -119.2483 97° East 460 529 34,900 540 Climbing Seattle Center
02:38PM 47.2322 -119.0569 97° East 472 543 35,000 60 Climbing Seattle Center
02:39PM 47.2150 -118.8558 97° East 494 568 35,100 540 Climbing Seattle Center
02:40PM 47.1958 -118.6575 98° East 493 567 36,200 1,080 Climbing Seattle Center
02:41PM 47.1781 -118.4625 98° East 484 557 37,400 1,260 Climbing Seattle Center
02:42PM 47.1550 -118.2297 98° East 483 556 38,800 780 Climbing Seattle Center
02:43PM 47.1361 -118.0383 98° East 479 551 39,000 60 Climbing Seattle Center
02:44PM 47.1175 -117.8411 98° East 488 562 39,000  Level Seattle Center
02:45PM 47.0975 -117.6425 98° East 494 568 39,000 180 Level Seattle Center
02:46PM 47.0778 -117.4442 98° East 497 572 39,400 600 Climbing Seattle Center
02:47PM 47.0567 -117.2517 99° East 487 560 40,300 780 Climbing Seattle Center
02:48PM 47.0378 -117.0614 98° East 478 550 41,000 300 Climbing Seattle Center
02:49PM 47.0172 -116.8669 99° East 484 557 41,000  Level Seattle Center
02:50PM 46.9917 -116.6328 99° East 489 563 41,000  Level Seattle Center
02:51PM 46.9706 -116.4356 99° East 493 567 41,000  Level Seattle Center
02:52PM 46.9478 -116.2389 100° East 493 567 41,000  Level Seattle Center
02:53PM 46.9250 -116.0419 100° East 493 567 41,000  Level Seattle Center
02:54PM 46.9017 -115.8453 100° East 494 568 41,000  Level Seattle Center
02:55PM 46.8783 -115.6464 100° East 497 572 41,000  Level Seattle Center
02:56PM 46.8542 -115.4478 100° East 498 573 41,000  Level Seattle Center
02:57PM 46.8292 -115.2403 100° East 497 572 41,000  Level Seattle Center
02:58PM 46.8053 -115.0431 100° East 498 573 41,000  Level Seattle Center
02:59PM 46.7800 -114.8433 100° East 502 578 41,000 180 Level Seattle Center
03:00PM 46.7547 -114.6458 101° East 500 575 41,400 660 Climbing Seattle Center
03:01PM 46.7292 -114.4517 101° East 494 568 42,400 780 Climbing Seattle Center
03:02PM 46.6997 -114.2222 101° East 483 556 43,000 240 Climbing Seattle Center
03:03PM 46.6736 -114.0281 101° East 490 564 43,000  Level Seattle Center
03:04PM 46.6628 -113.9494 101° East 495 570 43,000  Level Salt Lake Center
03:05PM 46.6369 -113.7519 101° East 500 575 43,000  Level Salt Lake Center
03:06PM 46.6033 -113.5153 102° East 501 577 43,000  Level Salt Lake Center
03:07PM 46.5753 -113.3147 101° East 507 583 43,000  Level Salt Lake Center
03:08PM 46.5500 -113.1336 101° East 506 582 43,000  Level Salt Lake Center
03:09PM 46.5161 -112.8939 102° East 508 585 43,000  Level Salt Lake Center
03:10PM 46.4869 -112.6975 102° East 504 580 43,000  Level Salt Lake Center
03:11PM 46.4569 -112.4975 102° East 508 585 43,000  Level Salt Lake Center
03:12PM 46.4383 -112.2956 98° East 507 583 43,000  Level Salt Lake Center
03:13PM 46.4256 -112.0625 94° East 505 581 43,000  Level Salt Lake Center
03:14PM 46.4136 -111.8575 95° East 508 585 43,000  Level Salt Lake Center
03:15PM 46.4017 -111.6519 95° East 510 587 43,000  Level Salt Lake Center
03:16PM 46.3897 -111.4458 95° East 511 588 43,000  Level Salt Lake Center
03:17PM 46.3775 -111.2372 95° East 515 593 43,000  Level Salt Lake Center
03:18PM 46.3631 -111.0303 96° East 514 592 43,000  Level Salt Lake Center
03:19PM 46.3489 -110.8283 96° East 515 593 43,000 120 Level Salt Lake Center
03:20PM 46.3317 -110.5789 96° East 509 586 43,300 480 Climbing Salt Lake Center
03:21PM 46.3181 -110.3839 96° East 509 586 44,100 600 Climbing Salt Lake Center
03:22PM 46.3036 -110.1914 96° East 495 570 44,600 420 Climbing Salt Lake Center
03:23PM 46.2900 -109.9997 96° East 486 559 45,000 180 Climbing Salt Lake Center
03:24PM 46.2733 -109.7728 96° East 483 556 45,000  Level Salt Lake Center
03:26PM 46.2589 -109.5800 96° East 485 558 45,000  Level Salt Lake Center
03:27PM 46.2425 -109.3706 96° East 490 564 45,000  Level Salt Lake Center
03:28PM 46.2261 -109.1758 97° East 495 570 45,000  Level Salt Lake Center
03:29PM 46.2089 -108.9633 97° East 495 570 45,000  Level Salt Lake Center
03:30PM 46.1922 -108.7653 97° East 503 579 45,000  Level Salt Lake Center
03:31PM 46.1739 -108.5492 97° East 506 582 45,000  Level Salt Lake Center
03:32PM 46.1556 -108.3500 97° East 506 582 45,000  Level Salt Lake Center
03:33PM 46.1375 -108.1511 97° East 506 582 45,000  Level Salt Lake Center
03:34PM 46.1169 -107.9372 98° East 501 577 45,000  Level Salt Lake Center
03:35PM 46.0986 -107.7386 98° East 505 581 45,000  Level Salt Lake Center
03:36PM 46.0775 -107.5242 98° East 504 580 45,000  Level Salt Lake Center
03:37PM 46.0583 -107.3256 98° East 503 579 45,000  Level Salt Lake Center
03:38PM 46.0406 -107.1431 98° East 507 583 45,000  Level Salt Lake Center
03:39PM 46.0150 -106.9042 99° East 510 587 45,000  Level Salt Lake Center
03:40PM 45.9919 -106.7008 99° East 513 590 45,000  Level Salt Lake Center
03:41PM 45.9697 -106.5006 99° East 514 592 45,000  Level Salt Lake Center
03:42PM 45.9497 -106.3017 98° East 511 588 45,000  Level Salt Lake Center
03:43PM 45.9289 -106.1033 99° East 509 586 45,000  Level Salt Lake Center
03:44PM 45.9019 -105.8633 99° East 508 585 45,000  Level Salt Lake Center
03:45PM 45.8811 -105.6642 98° East 508 585 45,000  Level Salt Lake Center
03:46PM 45.8589 -105.4656 99° East 508 585 45,000  Level Salt Lake Center
03:47PM 45.8369 -105.2692 99° East 506 582 45,000  Level Salt Lake Center
03:48PM 45.8136 -105.0689 99° East 509 586 45,000  Level Salt Lake Center
03:49PM 45.7883 -104.8619 100° East 515 593 45,000  Level Salt Lake Center
03:50PM 45.7589 -104.6261 100° East 515 593 45,000  Level Salt Lake Center
03:51PM 45.7336 -104.4214 100° East 520 598 45,000  Level Salt Lake Center
03:52PM 45.7078 -104.2158 100° East 524 603 45,000  Level Salt Lake Center
03:53PM 45.6814 -104.0136 101° East 524 603 45,000  Level Salt Lake Center
03:54PM 45.6561 -103.8108 100° East 523 602 45,000  Level Salt Lake Center
03:56PM 45.6233 -103.5675 101° East 523 602 45,000  Level Salt Lake Center
03:57PM 45.5958 -103.3658 101° East 521 600 45,000  Level Salt Lake Center
03:58PM 45.5692 -103.1647 101° East 519 597 45,000  Level Salt Lake Center
03:59PM 45.5411 -102.9636 101° East 519 597 45,000  Level Salt Lake Center
04:00PM 45.5131 -102.7617 101° East 521 600 45,000  Level Salt Lake Center
04:01PM 45.4839 -102.5603 102° East 522 601 45,000  Level Salt Lake Center
04:02PM 45.4483 -102.3183 102° East 521 600 45,000  Level Salt Lake Center
04:03PM 45.4192 -102.1153 101° East 524 603 45,000  Level Salt Lake Center
04:04PM 45.3903 -101.9114 101° East 526 605 45,000  Level Salt Lake Center
04:05PM 45.3458 -101.6269 102° East 526 605 45,000  Level Minneapolis Center
04:06PM 45.3142 -101.4242 102° East 526 605 45,000  Level Minneapolis Center
04:07PM 45.2819 -101.2214 103° East 527 606 45,000  Level Minneapolis Center
04:08PM 45.2528 -101.0161 101° East 529 609 45,000  Level Minneapolis Center
04:09PM 45.2203 -100.8131 103° East 529 609 45,000  Level Minneapolis Center
04:10PM 45.1811 -100.5681 103° East 531 611 45,000  Level Minneapolis Center
04:11PM 45.1478 -100.3661 103° East 529 609 45,000  Level Minneapolis Center
04:12PM 45.1133 -100.1636 103° East 528 608 45,000  Level Minneapolis Center
04:13PM 45.0769 -99.9603 104° East 535 616 45,000  Level Minneapolis Center
04:14PM 45.0406 -99.7308 103° East 539 620 45,000  Level Minneapolis Center
04:15PM 45.0056 -99.5283 104° East 534 615 45,000  Level Minneapolis Center
04:16PM 44.9711 -99.3256 103° East 532 612 45,000  Level Minneapolis Center
04:18PM 44.9358 -99.1242 104° East 530 610 45,000  Level Minneapolis Center
04:19PM 44.8992 -98.9236 104° East 529 609 45,000  Level Minneapolis Center
04:20PM 44.8636 -98.7203 104° East 533 613 45,000  Level Minneapolis Center
04:21PM 44.8275 -98.5194 104° East 531 611 45,000  Level Minneapolis Center
04:22PM 44.7872 -98.3019 105° East 533 613 45,000  Level Minneapolis Center
04:23PM 44.7497 -98.1008 105° East 532 612 45,000  Level Minneapolis Center
04:24PM 44.7053 -97.8597 104° East 531 611 45,000  Level Minneapolis Center
04:25PM 44.6672 -97.6603 105° East 530 610 45,000  Level Minneapolis Center
04:26PM 44.6281 -97.4611 105° East 531 611 45,000  Level Minneapolis Center
04:27PM 44.5897 -97.2608 105° East 533 613 45,000  Level Minneapolis Center
04:28PM 44.5500 -97.0611 106° East 533 613 45,000  Level Minneapolis Center
04:29PM 44.5106 -96.8611 105° East 533 613 45,000  Level Minneapolis Center
04:30PM 44.4628 -96.6214 106° East 533 613 45,000  Level Minneapolis Center
04:31PM 44.4228 -96.4192 105° East 537 618 45,000  Level Minneapolis Center
04:32PM 44.3822 -96.2153 105° East 538 619 45,000  Level Minneapolis Center
04:33PM 44.3389 -96.0083 106° East 540 621 45,000  Level Minneapolis Center
04:34PM 44.2969 -95.8050 106° East 541 623 45,000  Level Minneapolis Center
04:35PM 44.2550 -95.6039 106° East 538 619 45,000  Level Minneapolis Center
04:36PM 44.2106 -95.4006 107° East 547 629 45,000  Level Minneapolis Center
04:37PM 44.1669 -95.1989 107° East 546 628 45,000  Level Minneapolis Center
04:38PM 44.1225 -94.9978 107° East 545 627 45,000  Level Minneapolis Center
04:39PM 44.0694 -94.7553 107° East 547 629 45,000  Level Minneapolis Center
04:40PM 44.0261 -94.5547 107° East 545 627 45,000  Level Minneapolis Center
04:41PM 43.9822 -94.3542 107° East 544 626 45,000  Level Minneapolis Center
04:42PM 43.9322 -94.1408 108° East 551 634 45,000  Level Minneapolis Center
04:43PM 43.8864 -93.9406 108° East 550 633 45,000  Level Minneapolis Center
04:44PM 43.8408 -93.7397 107° East 549 632 45,000  Level Minneapolis Center
04:45PM 43.7947 -93.5386 108° East 551 634 45,000  Level Minneapolis Center
04:46PM 43.7386 -93.3000 108° East 549 632 45,000  Level Minneapolis Center
04:47PM 43.6967 -93.1247 108° East 553 636 45,000  Level Minneapolis Center
04:49PM 43.6400 -92.8842 108° East 554 638 45,000  Level Minneapolis Center
04:50PM 43.5919 -92.6853 108° East 552 635 45,000  Level Minneapolis Center
04:51PM 43.5431 -92.4856 109° East 553 636 45,000  Level Minneapolis Center
04:52PM 43.4942 -92.2844 108° East 557 641 45,000  Level Minneapolis Center
04:53PM 43.4450 -92.0861 109° East 553 636 45,000  Level Minneapolis Center
04:54PM 43.3867 -91.8447 108° East 555 639 45,000  Level Minneapolis Center
04:55PM 43.3367 -91.6444 109° East 555 639 45,000  Level Minneapolis Center
04:56PM 43.2964 -91.4856 109° East 554 638 45,000  Level Minneapolis Center
04:56PM 43.2547 -91.3283 110° East 554 638 45,000  Level Chicago Center
04:57PM 43.2039 -91.1297 109° East 553 636 45,000  Level Chicago Center
04:58PM 43.1525 -90.9306 109° East 555 639 45,000  Level Chicago Center
04:59PM 43.1000 -90.7328 110° East 555 639 45,000  Level Chicago Center
05:00PM 43.0475 -90.5344 110° East 559 643 45,000  Level Chicago Center
05:01PM 42.9953 -90.3383 110° East 556 640 45,000  Level Chicago Center
05:03PM 42.9322 -90.1036 110° East 555 639 45,000  Level Chicago Center
05:04PM 42.8786 -89.9086 111° Southeast 555 639 45,000  Level Chicago Center
05:05PM 42.8286 -89.7231 110° East 557 641 45,000  Level Chicago Center
05:06PM 42.7653 -89.4928 110° East 558 642 45,000  Level Chicago Center
05:07PM 42.7097 -89.2961 111° Southeast 559 643 45,000  Level Chicago Center
05:08PM 42.6550 -89.0997 111° Southeast 558 642 45,000  Level Chicago Center
05:09PM 42.6006 -88.9014 110° East 561 646 45,000  Level Chicago Center
05:10PM 42.5442 -88.7058 111° Southeast 559 643 45,000  Level Chicago Center
05:11PM 42.4792 -88.4772 111° Southeast 560 644 45,000  Level Chicago Center
05:12PM 42.4225 -88.2797 111° Southeast 562 647 45,000  Level Chicago Center
05:13PM 42.3656 -88.0833 111° Southeast 563 648 45,000  Level Chicago Center
05:14PM 42.3100 -87.8939 112° Southeast 559 643 45,000  Level Chicago Center
05:15PM 42.2517 -87.6972 112° Southeast 564 649 45,000  Level Chicago Center
05:16PM 42.1817 -87.4656 112° Southeast 559 643 45,000  Level Chicago Center
05:17PM 42.1231 -87.2714 112° Southeast 560 644 45,000  Level Chicago Center
05:18PM 42.0656 -87.0794 112° Southeast 556 640 45,000  Level Chicago Center
05:19PM 42.0056 -86.8856 113° Southeast 561 646 45,000  Level Chicago Center
05:20PM 41.9467 -86.6942 112° Southeast 557 641 45,000  Level Chicago Center
05:21PM 41.8883 -86.5083 113° Southeast 558 642 45,000  Level Chicago Center
05:22PM 41.8167 -86.2783 113° Southeast 559 643 45,000  Level Chicago Center
05:23PM 41.7567 -86.0881 113° Southeast 556 640 45,000  Level Chicago Center
05:24PM 41.6967 -85.8981 113° Southeast 558 642 45,000  Level Chicago Center
05:25PM 41.6361 -85.7092 113° Southeast 557 641 45,000  Level Chicago Center
05:26PM 41.5658 -85.4922 113° Southeast 559 643 45,000  Level Chicago Center
05:27PM 41.5033 -85.3014 114° Southeast 562 647 45,000  Level Chicago Center
05:28PM 41.4433 -85.1069 112° Southeast 575 662 45,000  Level Chicago Center
05:29PM 41.3811 -84.9175 114° Southeast 563 648 45,000  Level Chicago Center
05:30PM 41.3192 -84.7275 113° Southeast 563 648 45,000  Level Chicago Center
05:31PM 41.2547 -84.5369 114° Southeast 565 650 45,000  Level Chicago Center
05:32PM 41.1783 -84.3094 114° Southeast 565 650 45,000  Level Chicago Center
05:33PM 41.1147 -84.1211 114° Southeast 563 648 45,000  Level Chicago Center
05:34PM 41.0594 -83.9567 114° Southeast 554 638 45,000  Level Cleveland Center
05:35PM 40.9978 -83.7883 116° Southeast 554 638 45,000  Level Cleveland Center
05:36PM 40.9342 -83.5983 114° Southeast 554 638 45,000  Level Cleveland Center
05:37PM 40.8642 -83.3975 115° Southeast 550 633 45,000  Level Cleveland Center
05:38PM 40.7978 -83.2053 114° Southeast 556 640 45,000 -180 Level Cleveland Center
05:39PM 40.7331 -83.0247 115° Southeast 550 633 44,700 -1,200 Descending Cleveland Center
05:41PM 40.6503 -82.7800 114° Southeast 564 649 42,200 -1,620 Descending Indianapolis Center
05:42PM 40.5808 -82.5886 115° Southeast 573 659 41,000 -600 Descending Indianapolis Center
05:43PM 40.5094 -82.3925 116° Southeast 589 678 41,000  Level Indianapolis Center
05:44PM 40.4394 -82.1994 115° Southeast 586 674 41,000  Level Indianapolis Center
05:45PM 40.3689 -82.0056 115° Southeast 586 674 41,000  Level Indianapolis Center
05:46PM 40.2983 -81.8103 115° Southeast 589 678 41,000  Level Indianapolis Center
05:47PM 40.2158 -81.5872 116° Southeast 586 674 41,000  Level Indianapolis Center
05:48PM 40.1444 -81.3964 116° Southeast 583 671 41,000 -720 Level Indianapolis Center
05:49PM 40.0736 -81.2061 116° Southeast 581 669 39,600 -1,560 Descending Indianapolis Center
05:50PM 40.0011 -81.0142 116° Southeast 583 671 37,900 -1,680 Descending Indianapolis Center
05:51PM 39.9258 -80.8147 116° Southeast 587 676 36,200 -1,680 Descending Indianapolis Center
05:51PM 39.8836 -80.6967 115° Southeast 574 661 35,200 -780 Descending Cleveland Center
05:52PM 39.8108 -80.5047 116° Southeast 574 661 35,000 -120 Descending Cleveland Center
05:54PM 39.7222 -80.2347 113° Southeast 580 667 35,000 -240 Level Washington Center
05:55PM 39.6608 -80.0367 112° Southeast 580 667 34,400 -1,800 Descending Washington Center
05:56PM 39.5992 -79.8442 113° Southeast 586 674 31,400 -3,120 Descending Washington Center
05:57PM 39.5389 -79.6522 112° Southeast 586 674 28,300 -2,280 Descending Washington Center
05:58PM 39.4889 -79.4694 109° East 566 651 27,000 -1,200 Descending Washington Center
05:59PM 39.4569 -79.2900 103° East 535 616 25,900 -1,320 Descending Washington Center
06:00PM 39.4222 -79.1244 105° East 502 578 24,400 -1,860 Descending Washington Center
06:01PM 39.3936 -78.9647 103° East 469 540 22,200 -2,220 Descending Washington Center
06:02PM 39.3664 -78.8131 103° East 444 511 19,900 -2,280 Descending Washington Center
06:03PM 39.3411 -78.6669 103° East 429 494 17,700 -2,220 Descending Washington Center
06:04PM 39.3153 -78.5264 103° East 411 473 15,500 -2,040 Descending Washington Center
06:05PM 39.2914 -78.3939 103° East 396 456 13,700 -2,040 Descending Washington Center
06:06PM 39.2736 -78.2647 100° East 379 436 11,600 -2,100 Descending Washington Center
06:07PM 39.2553 -78.1406 101° East 359 413 9,600 -1,740 Descending Washington Center
06:08PM 39.2389 -78.0328 101° East 329 379 8,200 -1,440 Descending Washington Center
06:09PM 39.2242 -77.9278 100° East 312 359 6,700 -1,560 Descending Washington Center
06:10PM 39.2075 -77.8283 102° East 293 337 5,200 -900 Descending Washington Center
06:11PM 39.1989 -77.7289 96° East 283 326 5,000 -600 Descending Washington Center
06:12PM 39.1942 -77.6297 93° East 276 318 4,000 -840 Descending Washington Center
06:13PM 39.1894 -77.5439 94° East 263 303 3,400 -420 Descending Washington Center
06:14PM 39.1167 -77.4667 141° Southeast 220 253 3,000 -480 Descending Potomac TRACON
06:15PM 39.0667 -77.4500 165° South 207 238 2,300 -840 Descending Potomac TRACON
06:16PM 39.0167 -77.4333 165° South 183 211 1,500 -900 Descending Potomac TRACON
06:17PM 38.9667 -77.4333 180° South 149 171 600 -840 Descending Potomac TRACON
06:19PM 38.9474 -77.4599 165° South  Level Estimated
06:26PM 38.9474 -77.4599 165° South  Level Estimated
06:27PM 38.9474 -77.4599 165° South  Level Estimated
06:28PM 38.9474 -77.4599 165° South  Level Estimated